createdAt,value
2018-10-11T00:02:07.898Z,16.60
2018-10-11T00:04:36.095Z,16.60
2018-10-11T00:07:04.279Z,16.60
2018-10-11T00:09:32.498Z,16.60
2018-10-11T00:12:00.680Z,16.60
2018-10-11T00:14:29.054Z,16.60
2018-10-11T00:16:57.218Z,16.50
2018-10-11T00:19:25.416Z,16.50
2018-10-11T00:21:53.643Z,16.40
2018-10-11T00:24:21.844Z,16.40
2018-10-11T00:26:50.009Z,16.40
2018-10-11T00:29:18.215Z,16.40
2018-10-11T00:31:46.423Z,16.40
2018-10-11T00:34:14.623Z,16.30
2018-10-11T00:36:42.805Z,16.30
2018-10-11T00:39:11.005Z,16.20
2018-10-11T00:41:39.207Z,16.20
2018-10-11T00:44:07.628Z,16.20
2018-10-11T00:46:35.824Z,16.20
2018-10-11T00:49:04.045Z,16.20
2018-10-11T00:51:32.269Z,16.20
2018-10-11T00:54:00.459Z,16.20
2018-10-11T00:56:28.644Z,16.10
2018-10-11T00:58:56.836Z,16.10
2018-10-11T01:01:25.019Z,16.10
2018-10-11T01:03:53.265Z,16.10
2018-10-11T01:06:21.449Z,16.00
2018-10-11T01:08:49.655Z,16.00
2018-10-11T01:11:17.823Z,15.90
2018-10-11T01:13:46.019Z,15.90
2018-10-11T01:16:14.211Z,15.90
2018-10-11T01:18:42.405Z,15.90
2018-10-11T01:21:10.850Z,15.80
2018-10-11T01:23:39.341Z,15.80
2018-10-11T01:26:07.523Z,15.80
2018-10-11T01:28:35.697Z,15.80
2018-10-11T01:31:09.309Z,15.70
2018-10-11T01:33:37.506Z,15.70
2018-10-11T01:36:05.696Z,15.60
2018-10-11T01:38:33.917Z,15.60
2018-10-11T01:41:02.145Z,15.60
2018-10-11T01:43:30.404Z,15.60
2018-10-11T01:45:58.581Z,15.60
2018-10-11T01:48:26.794Z,15.60
2018-10-11T01:50:54.980Z,15.50
2018-10-11T01:53:23.238Z,15.50
2018-10-11T01:55:51.416Z,15.50
2018-10-11T01:58:19.592Z,15.50
2018-10-11T02:00:47.800Z,15.50
2018-10-11T02:03:15.997Z,15.50
2018-10-11T02:05:44.162Z,15.50
2018-10-11T02:08:12.359Z,15.50
2018-10-11T02:10:40.560Z,15.50
2018-10-11T02:13:08.785Z,15.50
2018-10-11T02:15:36.995Z,15.50
2018-10-11T02:18:05.380Z,15.40
2018-10-11T02:20:33.565Z,15.40
2018-10-11T02:23:01.749Z,15.40
2018-10-11T02:25:29.936Z,15.30
2018-10-11T02:27:58.147Z,15.20
2018-10-11T02:30:26.332Z,15.20
2018-10-11T02:32:54.928Z,15.10
2018-10-11T02:35:23.136Z,15.10
2018-10-11T02:37:51.338Z,15.00
2018-10-11T02:40:19.545Z,15.00
2018-10-11T02:42:47.788Z,15.00
2018-10-11T02:45:15.976Z,14.90
2018-10-11T02:47:44.182Z,15.00
2018-10-11T02:50:12.432Z,15.00
2018-10-11T02:52:40.720Z,15.10
2018-10-11T02:55:08.932Z,15.20
2018-10-11T02:57:48.368Z,15.20
2018-10-11T03:00:16.608Z,15.20
2018-10-11T03:02:44.938Z,15.20
2018-10-11T03:05:17.456Z,15.20
2018-10-11T03:07:46.554Z,15.10
2018-10-11T03:10:15.052Z,15.10
2018-10-11T03:12:43.340Z,15.00
2018-10-11T03:15:11.533Z,15.00
2018-10-11T03:17:39.723Z,14.90
2018-10-11T03:20:07.942Z,14.90
2018-10-11T03:22:36.151Z,14.80
2018-10-11T03:25:04.343Z,14.80
2018-10-11T03:27:32.558Z,14.80
2018-10-11T03:30:00.757Z,14.70
2018-10-11T03:32:29.006Z,14.60
2018-10-11T03:34:57.205Z,14.60
2018-10-11T03:37:25.396Z,14.50
2018-10-11T03:39:53.614Z,14.40
2018-10-11T03:42:21.831Z,14.30
2018-10-11T03:44:50.044Z,14.20
2018-10-11T03:47:18.222Z,14.20
2018-10-11T03:49:46.415Z,14.20
2018-10-11T03:52:14.627Z,14.20
2018-10-11T03:54:43.245Z,14.20
2018-10-11T03:57:11.437Z,14.20
2018-10-11T03:59:39.633Z,14.20
2018-10-11T04:02:07.856Z,14.20
2018-10-11T04:04:36.061Z,14.10
2018-10-11T04:07:04.253Z,13.90
2018-10-11T04:09:32.485Z,13.80
2018-10-11T04:12:00.680Z,13.70
2018-10-11T04:14:28.879Z,13.50
2018-10-11T04:16:57.156Z,13.30
2018-10-11T04:19:25.324Z,13.10
2018-10-11T04:21:53.568Z,13.00
2018-10-11T04:24:21.785Z,12.90
2018-10-11T04:26:49.977Z,12.90
2018-10-11T04:29:18.159Z,12.80
2018-10-11T04:31:46.965Z,12.80
2018-10-11T04:34:15.166Z,12.80
2018-10-11T04:36:43.659Z,12.80
2018-10-11T04:39:11.848Z,12.80
2018-10-11T04:41:40.417Z,12.80
2018-10-11T04:44:08.723Z,12.90
2018-10-11T04:46:36.922Z,12.90
2018-10-11T04:49:05.127Z,12.90
2018-10-11T04:51:33.338Z,12.90
2018-10-11T04:54:01.507Z,12.90
2018-10-11T04:56:29.740Z,12.90
2018-10-11T04:58:58.346Z,12.90
2018-10-11T05:01:27.306Z,12.80
2018-10-11T05:03:55.568Z,12.70
2018-10-11T05:06:23.773Z,12.70
2018-10-11T05:08:52.000Z,12.70
2018-10-11T05:11:20.168Z,12.60
2018-10-11T05:13:49.907Z,12.50
2018-10-11T05:16:18.198Z,12.50
2018-10-11T05:18:54.271Z,12.50
2018-10-11T05:21:22.524Z,12.50
2018-10-11T05:23:50.658Z,12.50
2018-10-11T05:26:19.362Z,12.50
2018-10-11T05:28:47.535Z,12.50
2018-10-11T05:31:16.334Z,12.60
2018-10-11T05:33:44.563Z,12.60
2018-10-11T05:36:13.791Z,12.60
2018-10-11T05:38:42.364Z,12.50
2018-10-11T05:41:10.835Z,12.50
2018-10-11T05:43:39.051Z,12.40
2018-10-11T05:46:11.005Z,12.40
2018-10-11T05:48:39.185Z,12.40
2018-10-11T05:51:07.403Z,12.30
2018-10-11T05:53:35.611Z,12.30
2018-10-11T05:56:03.842Z,12.30
2018-10-11T05:58:32.047Z,12.20
2018-10-11T06:01:00.461Z,12.20
2018-10-11T06:03:28.647Z,12.20
2018-10-11T06:05:56.898Z,12.30
2018-10-11T06:08:25.102Z,12.20
2018-10-11T06:10:53.332Z,12.10
2018-10-11T06:13:21.535Z,12.00
2018-10-11T06:15:49.766Z,11.90
2018-10-11T06:18:18.017Z,11.90
2018-10-11T06:20:46.224Z,11.80
2018-10-11T06:23:14.466Z,11.80
2018-10-11T06:25:42.700Z,11.80
2018-10-11T06:28:10.883Z,11.80
2018-10-11T06:30:39.136Z,11.90
2018-10-11T06:33:07.419Z,12.00
2018-10-11T06:35:36.065Z,12.10
2018-10-11T06:38:04.581Z,12.10
2018-10-11T06:40:33.585Z,12.10
2018-10-11T06:43:01.849Z,12.10
2018-10-11T06:45:30.037Z,12.10
2018-10-11T06:48:00.361Z,12.20
2018-10-11T06:50:28.677Z,12.40
2018-10-11T06:52:57.386Z,12.90
2018-10-11T06:55:25.606Z,13.30
2018-10-11T06:57:53.811Z,13.80
2018-10-11T07:00:21.994Z,14.40
2018-10-11T07:02:50.182Z,14.80
2018-10-11T07:05:18.409Z,15.30
2018-10-11T07:07:46.692Z,15.80
2018-10-11T07:10:14.844Z,16.30
2018-10-11T07:12:43.258Z,16.80
2018-10-11T07:15:11.464Z,17.20
2018-10-11T07:17:39.662Z,17.70
2018-10-11T07:20:07.887Z,18.20
2018-10-11T07:22:36.084Z,18.60
2018-10-11T07:25:04.314Z,19.00
2018-10-11T07:27:32.498Z,19.30
2018-10-11T07:30:00.720Z,19.40
2018-10-11T07:32:29.212Z,19.40
2018-10-11T07:34:57.418Z,19.60
2018-10-11T07:37:25.644Z,19.90
2018-10-11T07:39:53.851Z,20.40
2018-10-11T07:42:22.057Z,20.70
2018-10-11T07:44:50.246Z,21.20
2018-10-11T07:47:18.456Z,21.60
2018-10-11T07:50:03.323Z,22.10
2018-10-11T07:52:31.542Z,22.40
2018-10-11T07:54:59.760Z,22.60
2018-10-11T07:57:28.009Z,22.70
2018-10-11T07:59:56.253Z,22.80
2018-10-11T08:02:24.474Z,23.10
2018-10-11T08:04:52.844Z,23.30
2018-10-11T08:07:21.101Z,23.40
2018-10-11T08:09:49.274Z,23.60
2018-10-11T08:12:17.484Z,23.70
2018-10-11T08:14:45.670Z,23.80
2018-10-11T08:17:14.220Z,24.10
2018-10-11T08:19:42.143Z,24.40
2018-10-11T08:22:10.270Z,24.80
2018-10-11T08:24:38.559Z,25.10
2018-10-11T08:27:06.747Z,25.40
2018-10-11T08:29:34.905Z,25.90
2018-10-11T08:32:03.092Z,26.50
2018-10-11T08:34:31.269Z,26.80
2018-10-11T08:36:59.473Z,26.90
2018-10-11T08:39:27.655Z,27.10
2018-10-11T08:41:55.863Z,27.30
2018-10-11T08:44:24.039Z,27.50
2018-10-11T08:46:52.244Z,27.40
2018-10-11T08:49:20.432Z,27.50
2018-10-11T08:51:48.620Z,27.70
2018-10-11T08:54:22.263Z,28.10
2018-10-11T08:56:50.493Z,28.50
2018-10-11T08:59:18.897Z,28.80
2018-10-11T09:01:46.956Z,29.10
2018-10-11T09:04:15.206Z,29.40
2018-10-11T09:06:43.408Z,29.70
2018-10-11T09:09:11.615Z,30.00
2018-10-11T09:11:39.882Z,30.00
2018-10-11T09:14:08.139Z,29.90
2018-10-11T09:16:36.370Z,29.80
2018-10-11T09:19:04.763Z,29.90
2018-10-11T09:21:33.127Z,29.80
2018-10-11T09:24:01.529Z,29.60
2018-10-11T09:26:29.757Z,29.50
2018-10-11T09:28:58.012Z,29.60
2018-10-11T09:31:26.208Z,29.90
2018-10-11T09:33:54.437Z,30.10
2018-10-11T09:36:22.790Z,30.20
2018-10-11T09:38:51.704Z,30.00
2018-10-11T09:41:20.299Z,30.10
2018-10-11T09:43:48.479Z,30.40
2018-10-11T09:46:16.676Z,30.50
2018-10-11T09:48:44.866Z,30.80
2018-10-11T09:51:13.232Z,30.90
2018-10-11T09:53:41.508Z,31.00
2018-10-11T09:56:09.708Z,30.90
2018-10-11T09:58:37.883Z,30.90
2018-10-11T10:01:11.831Z,30.70
2018-10-11T10:03:40.055Z,30.80
2018-10-11T10:06:08.420Z,30.80
2018-10-11T10:08:36.619Z,31.00
2018-10-11T10:11:04.803Z,31.30
2018-10-11T10:13:33.059Z,31.70
2018-10-11T10:16:01.316Z,31.90
2018-10-11T10:18:29.543Z,32.00
2018-10-11T10:20:57.802Z,32.20
2018-10-11T10:23:25.976Z,32.60
2018-10-11T10:25:54.167Z,32.60
2018-10-11T10:28:22.361Z,32.50
2018-10-11T10:30:53.719Z,32.00
2018-10-11T10:33:23.249Z,31.70
2018-10-11T10:35:51.495Z,31.80
2018-10-11T10:38:20.399Z,31.80
2018-10-11T10:40:48.603Z,32.20
2018-10-11T10:43:16.796Z,32.00
2018-10-11T10:45:44.979Z,31.90
2018-10-11T10:48:13.187Z,32.30
2018-10-11T10:50:41.504Z,32.30
2018-10-11T10:53:09.881Z,32.30
2018-10-11T10:55:38.366Z,32.60
2018-10-11T10:58:06.851Z,33.10
2018-10-11T11:00:35.098Z,33.50
2018-10-11T11:03:03.291Z,34.20
2018-10-11T11:05:31.497Z,34.90
2018-10-11T11:07:59.828Z,35.00
2018-10-11T11:10:28.023Z,34.50
2018-10-11T11:12:56.312Z,34.50
2018-10-11T11:15:24.508Z,33.90
2018-10-11T11:17:52.732Z,33.70
2018-10-11T11:20:20.918Z,33.60
2018-10-11T11:22:49.190Z,33.40
2018-10-11T11:25:17.537Z,32.90
2018-10-11T11:27:45.606Z,32.60
2018-10-11T11:30:13.838Z,32.20
2018-10-11T11:32:42.108Z,31.90
2018-10-11T11:35:10.342Z,31.50
2018-10-11T11:37:38.565Z,30.70
2018-10-11T11:40:07.101Z,30.10
2018-10-11T11:42:35.174Z,29.70
2018-10-11T11:45:03.447Z,29.50
2018-10-11T11:47:31.663Z,29.90
2018-10-11T11:49:59.891Z,30.80
2018-10-11T11:52:28.097Z,31.30
2018-10-11T11:54:56.271Z,32.00
2018-10-11T11:57:24.471Z,32.60
2018-10-11T11:59:52.727Z,32.30
2018-10-11T12:02:20.924Z,32.40
2018-10-11T12:04:49.119Z,32.90
2018-10-11T12:07:17.340Z,33.20
2018-10-11T12:09:45.538Z,33.70
2018-10-11T12:12:29.673Z,33.80
2018-10-11T12:14:57.846Z,34.20
2018-10-11T12:17:26.083Z,34.70
2018-10-11T12:19:54.294Z,35.10
2018-10-11T12:22:22.824Z,35.00
2018-10-11T12:24:51.099Z,35.10
2018-10-11T12:27:19.259Z,35.10
2018-10-11T12:29:47.447Z,35.00
2018-10-11T12:32:15.620Z,35.00
2018-10-11T12:34:43.823Z,34.70
2018-10-11T12:37:12.116Z,34.50
2018-10-11T12:39:40.198Z,34.60
2018-10-11T12:42:08.371Z,34.90
2018-10-11T12:44:36.577Z,35.50
2018-10-11T12:47:04.777Z,35.70
2018-10-11T12:49:32.987Z,35.90
2018-10-11T12:52:01.195Z,35.80
2018-10-11T12:54:29.411Z,35.30
2018-10-11T12:56:57.775Z,35.00
2018-10-11T12:59:25.882Z,34.70
2018-10-11T13:01:54.103Z,34.30
2018-10-11T13:04:22.299Z,33.90
2018-10-11T13:06:50.530Z,33.50
2018-10-11T13:09:18.759Z,32.80
2018-10-11T13:11:46.931Z,31.80
2018-10-11T13:14:15.141Z,31.00
2018-10-11T13:16:43.327Z,30.50
2018-10-11T13:19:11.512Z,30.10
2018-10-11T13:21:39.707Z,29.60
2018-10-11T13:24:08.336Z,28.90
2018-10-11T13:26:36.525Z,28.20
2018-10-11T13:29:04.817Z,27.80
2018-10-11T13:31:32.925Z,27.70
2018-10-11T13:34:01.173Z,27.70
2018-10-11T13:36:29.384Z,28.00
2018-10-11T13:38:57.562Z,28.10
2018-10-11T13:41:25.937Z,28.00
2018-10-11T13:43:53.981Z,27.80
2018-10-11T13:46:22.143Z,27.70
2018-10-11T13:48:50.361Z,27.60
2018-10-11T13:51:18.550Z,27.30
2018-10-11T13:53:51.286Z,27.20
2018-10-11T13:56:14.971Z,27.20
2018-10-11T13:58:43.224Z,27.40
2018-10-11T14:01:11.391Z,27.80
2018-10-11T14:03:39.870Z,28.20
2018-10-11T14:06:08.067Z,28.30
2018-10-11T14:08:36.259Z,28.20
2018-10-11T14:11:04.485Z,27.90
2018-10-11T14:13:32.686Z,27.60
2018-10-11T14:16:00.887Z,27.60
2018-10-11T14:18:29.113Z,27.40
2018-10-11T14:20:57.856Z,27.30
2018-10-11T14:23:26.049Z,26.90
2018-10-11T14:25:54.217Z,26.40
2018-10-11T14:28:22.411Z,25.80
2018-10-11T14:30:50.578Z,25.40
2018-10-11T14:33:18.946Z,25.10
2018-10-11T14:35:47.216Z,24.80
2018-10-11T14:38:15.427Z,24.60
2018-10-11T14:40:43.630Z,24.40
2018-10-11T14:43:11.958Z,24.30
2018-10-11T14:45:40.150Z,24.20
2018-10-11T14:48:08.331Z,24.20
2018-10-11T14:50:36.502Z,24.10
2018-10-11T14:53:04.781Z,24.10
2018-10-11T14:55:32.954Z,24.10
2018-10-11T14:58:01.147Z,24.00
2018-10-11T15:00:29.357Z,23.90
2018-10-11T15:02:57.668Z,23.80
2018-10-11T15:05:26.043Z,23.70
2018-10-11T15:07:54.202Z,23.70
2018-10-11T15:10:22.486Z,23.60
2018-10-11T15:12:50.613Z,23.40
2018-10-11T15:15:18.791Z,23.30
2018-10-11T15:17:47.056Z,23.20
2018-10-11T15:20:15.217Z,23.10
2018-10-11T15:22:43.546Z,22.90
2018-10-11T15:25:11.727Z,22.80
2018-10-11T15:27:39.920Z,22.70
2018-10-11T15:30:08.566Z,22.70
2018-10-11T15:32:36.825Z,22.60
2018-10-11T15:35:05.032Z,22.50
2018-10-11T15:37:33.216Z,22.50
2018-10-11T15:40:01.411Z,22.40
2018-10-11T15:42:30.059Z,22.40
2018-10-11T15:44:58.560Z,22.30
2018-10-11T15:47:26.851Z,22.20
2018-10-11T15:49:55.134Z,22.10
2018-10-11T15:52:23.319Z,22.00
2018-10-11T15:54:51.493Z,22.00
2018-10-11T15:57:19.707Z,21.90
2018-10-11T15:59:47.987Z,21.90
2018-10-11T16:02:16.112Z,21.90
2018-10-11T16:04:44.319Z,21.80
2018-10-11T16:07:12.520Z,21.80
2018-10-11T16:09:40.721Z,21.80
2018-10-11T16:12:08.911Z,21.90
2018-10-11T16:14:37.095Z,21.90
2018-10-11T16:17:05.301Z,21.80
2018-10-11T16:19:33.518Z,21.80
2018-10-11T16:22:01.711Z,21.80
2018-10-11T16:24:29.928Z,21.80
2018-10-11T16:26:58.079Z,21.90
2018-10-11T16:29:26.295Z,22.00
2018-10-11T16:31:54.469Z,22.10
2018-10-11T16:34:22.659Z,22.20
2018-10-11T16:36:51.031Z,22.20
2018-10-11T16:39:19.368Z,22.20
2018-10-11T16:41:47.453Z,22.20
2018-10-11T16:44:15.650Z,22.20
2018-10-11T16:46:44.045Z,22.10
2018-10-11T16:49:12.254Z,22.00
2018-10-11T16:51:40.446Z,21.90
2018-10-11T16:54:08.822Z,21.70
2018-10-11T16:56:37.015Z,21.70
2018-10-11T16:59:05.238Z,21.60
2018-10-11T17:01:33.409Z,21.50
2018-10-11T17:04:02.725Z,21.50
2018-10-11T17:06:30.907Z,21.40
2018-10-11T17:08:59.157Z,21.40
2018-10-11T17:11:27.368Z,21.30
2018-10-11T17:13:55.575Z,21.20
2018-10-11T17:16:23.769Z,21.00
2018-10-11T17:18:51.955Z,20.90
2018-10-11T17:21:20.172Z,20.80
2018-10-11T17:23:48.362Z,20.70
2018-10-11T17:26:16.567Z,20.60
2018-10-11T17:28:44.753Z,20.50
2018-10-11T17:31:12.921Z,20.40
2018-10-11T17:33:41.119Z,20.40
2018-10-11T17:36:09.308Z,20.30
2018-10-11T17:38:37.506Z,20.20
2018-10-11T17:41:05.880Z,20.20
2018-10-11T17:43:34.094Z,20.10
2018-10-11T17:46:02.286Z,20.10
2018-10-11T17:48:30.474Z,20.00
2018-10-11T17:50:58.720Z,20.00
2018-10-11T17:53:26.916Z,19.90
2018-10-11T17:55:55.156Z,19.80
2018-10-11T17:58:23.339Z,19.80
2018-10-11T18:00:51.598Z,19.80
2018-10-11T18:03:19.905Z,19.70
2018-10-11T18:05:48.446Z,19.60
2018-10-11T18:08:16.644Z,19.60
2018-10-11T18:10:44.873Z,19.50
2018-10-11T18:13:13.066Z,19.40
2018-10-11T18:15:41.264Z,19.40
2018-10-11T18:18:09.458Z,19.30
2018-10-11T18:20:37.723Z,19.20
2018-10-11T18:23:06.017Z,19.20
2018-10-11T18:25:34.244Z,19.20
2018-10-11T18:28:02.436Z,19.10
2018-10-11T18:30:30.614Z,19.00
2018-10-11T18:32:58.886Z,18.90
2018-10-11T18:35:27.096Z,18.80
2018-10-11T18:37:55.299Z,18.70
2018-10-11T18:40:23.489Z,18.70
2018-10-11T18:42:51.666Z,18.60
2018-10-11T18:45:20.067Z,18.60
2018-10-11T18:47:48.236Z,18.50
2018-10-11T18:50:16.457Z,18.50
2018-10-11T18:52:44.739Z,18.40
2018-10-11T18:55:12.945Z,18.20
2018-10-11T18:57:41.345Z,18.20
2018-10-11T19:00:09.527Z,18.10
2018-10-11T19:02:38.033Z,18.00
2018-10-11T19:05:06.237Z,18.00
2018-10-11T19:07:34.493Z,17.90
2018-10-11T19:10:02.685Z,17.90
2018-10-11T19:12:30.926Z,17.80
2018-10-11T19:14:59.091Z,17.80
2018-10-11T19:17:27.275Z,17.80
2018-10-11T19:19:55.511Z,17.70
2018-10-11T19:22:23.709Z,17.60
2018-10-11T19:24:51.931Z,17.60
2018-10-11T19:27:20.168Z,17.60
2018-10-11T19:29:48.393Z,17.60
2018-10-11T19:32:16.605Z,17.50
2018-10-11T19:34:44.822Z,17.50
2018-10-11T19:37:13.031Z,17.50
2018-10-11T19:39:41.260Z,17.50
2018-10-11T19:42:09.501Z,17.50
2018-10-11T19:44:37.683Z,17.50
2018-10-11T19:47:06.084Z,17.60
2018-10-11T19:49:34.259Z,17.50
2018-10-11T19:52:02.466Z,17.50
2018-10-11T19:55:59.910Z,17.50
2018-10-11T19:58:28.127Z,17.50
2018-10-11T20:00:56.329Z,17.40
2018-10-11T20:03:24.534Z,17.30
2018-10-11T20:05:52.756Z,17.10
2018-10-11T20:08:20.965Z,17.10
2018-10-11T20:10:49.143Z,17.10
2018-10-11T20:13:17.823Z,17.10
2018-10-11T20:15:46.047Z,17.10
2018-10-11T20:18:14.289Z,17.10
2018-10-11T20:20:42.459Z,17.20
2018-10-11T20:23:10.685Z,17.20
2018-10-11T20:25:38.868Z,17.20
2018-10-11T20:28:07.067Z,17.30
2018-10-11T20:30:35.287Z,17.30
2018-10-11T20:33:03.479Z,17.30
2018-10-11T20:35:31.700Z,17.30
2018-10-11T20:37:59.901Z,17.30
2018-10-11T20:40:28.111Z,17.30
2018-10-11T20:42:56.367Z,17.30
2018-10-11T20:45:24.589Z,17.40
2018-10-11T20:47:52.816Z,17.40
2018-10-11T20:50:21.008Z,17.50
2018-10-11T20:52:49.261Z,17.40
2018-10-11T20:55:17.474Z,17.30
2018-10-11T20:57:45.739Z,17.30
2018-10-11T21:00:13.963Z,17.20
2018-10-11T21:02:42.159Z,17.20
2018-10-11T21:05:10.063Z,17.10
2018-10-11T21:07:38.247Z,17.20
2018-10-11T21:10:07.191Z,17.10
2018-10-11T21:12:36.032Z,17.10
2018-10-11T21:15:04.245Z,17.10
2018-10-11T21:17:32.445Z,17.10
2018-10-11T21:20:00.671Z,17.10
2018-10-11T21:22:28.833Z,17.10
2018-10-11T21:24:57.037Z,17.00
2018-10-11T21:27:25.240Z,16.90
2018-10-11T21:29:53.464Z,16.90
2018-10-11T21:32:21.682Z,16.80
2018-10-11T21:34:49.880Z,16.80
2018-10-11T21:37:18.060Z,16.70
2018-10-11T21:39:46.272Z,16.70
2018-10-11T21:42:14.472Z,16.70
2018-10-11T21:44:42.653Z,16.70
2018-10-11T21:47:10.854Z,16.70
2018-10-11T21:49:39.044Z,16.70
2018-10-11T21:52:07.594Z,16.70
2018-10-11T21:54:35.798Z,16.60
2018-10-11T21:57:03.992Z,16.50
2018-10-11T21:59:32.199Z,16.40
2018-10-11T22:02:00.370Z,16.30
2018-10-11T22:04:28.561Z,16.20
2018-10-11T22:06:56.732Z,16.30
2018-10-11T22:09:24.918Z,16.20
2018-10-11T22:11:53.114Z,16.10
2018-10-11T22:14:21.388Z,16.00
2018-10-11T22:16:49.572Z,15.90
2018-10-11T22:19:17.756Z,15.90
2018-10-11T22:21:45.966Z,15.80
2018-10-11T22:24:14.175Z,15.60
2018-10-11T22:26:42.360Z,15.50
2018-10-11T22:29:10.555Z,15.20
2018-10-11T22:31:40.559Z,15.10
2018-10-11T22:34:08.778Z,15.00
2018-10-11T22:36:37.004Z,15.00
2018-10-11T22:39:07.962Z,14.90
2018-10-11T22:41:36.705Z,14.90
2018-10-11T22:44:04.886Z,14.90
2018-10-11T22:46:33.112Z,14.90
2018-10-11T22:49:01.309Z,14.90
2018-10-11T22:51:29.847Z,15.00
2018-10-11T22:53:58.048Z,15.00
2018-10-11T22:56:26.239Z,15.00
2018-10-11T22:58:54.458Z,15.00
2018-10-11T23:01:22.948Z,15.00
2018-10-11T23:03:51.156Z,15.00
2018-10-11T23:06:19.434Z,15.00
2018-10-11T23:08:47.664Z,15.00
2018-10-11T23:11:15.866Z,15.00
2018-10-11T23:13:44.070Z,15.00
2018-10-11T23:16:12.261Z,14.90
2018-10-11T23:18:41.998Z,14.90
2018-10-11T23:21:10.667Z,14.90
2018-10-11T23:23:38.856Z,14.90
2018-10-11T23:26:07.364Z,14.80
2018-10-11T23:28:35.566Z,14.80
2018-10-11T23:31:03.752Z,14.80
2018-10-11T23:33:31.960Z,14.70
2018-10-11T23:36:00.300Z,14.70
2018-10-11T23:38:28.520Z,14.70
2018-10-11T23:40:56.708Z,14.70
2018-10-11T23:43:25.167Z,14.70
2018-10-11T23:45:53.365Z,14.60
2018-10-11T23:48:21.564Z,14.70
2018-10-11T23:50:49.764Z,14.70
2018-10-11T23:53:18.024Z,14.70
2018-10-11T23:55:46.199Z,14.70
2018-10-11T23:58:14.384Z,14.70
